Date,TemperatureHighF,TemperatureAvgF,TemperatureLowF,DewpointHighF,DewpointAvgF,DewpointLowF,HumidityHigh,HumidityAvg,HumidityLow,PressureMaxIn,PressureMinIn,WindSpeedMaxMPH,WindSpeedAvgMPH,GustSpeedMaxMPH,PrecipitationSumIn
2014-1-1,63.7,48.1,37.4,35.5,27.3,22.9,56,45,33,30.07,29.98,4,0,5,0.00
2014-1-2,65.3,49.0,37.4,36.8,30.1,25.4,64,49,35,30.04,29.93,5,0,5,0.00
2014-1-3,65.1,50.3,39.9,36.8,31.3,27.6,62,49,35,29.96,29.84,4,0,5,0.00
2014-1-4,63.7,48.9,37.9,35.4,30.0,24.5,70,49,33,29.93,29.84,8,0,8,0.00
2014-1-5,63.9,48.8,38.5,35.7,28.9,22.4,61,47,35,30.07,29.93,4,0,4,0.00
2014-1-6,61.2,47.7,39.4,34.0,27.6,23.7,56,46,36,30.16,30.04,3,0,4,0.00
2014-1-7,62.6,49.6,39.7,35.1,29.0,23.8,61,46,33,30.07,29.98,4,0,4,0.00
2014-1-8,57.6,50.1,43.7,44.8,36.6,24.8,78,60,41,30.10,29.98,4,0,4,0.00
2014-1-9,59.0,49.8,43.5,42.4,38.0,34.2,74,64,48,30.10,29.98,6,0,6,0.00
2014-1-10,60.6,48.4,38.7,39.8,34.7,31.4,83,61,36,30.16,30.04,4,0,5,0.00
2014-1-11,54.5,49.9,44.1,42.8,37.9,32.2,77,63,51,30.13,30.01,5,0,6,0.00
2014-1-12,58.8,48.2,39.4,42.3,32.6,23.3,94,59,34,30.25,30.07,10,1,10,0.00
2014-1-13,62.8,47.4,36.5,35.1,30.0,24.9,65,52,35,30.34,30.19,4,0,4,0.00
2014-1-14,63.3,48.1,35.8,36.6,31.3,26.6,72,54,35,30.34,30.22,4,0,4,0.00
2014-1-15,66.7,53.1,44.1,37.6,30.9,27.6,54,43,34,30.10,30.10,0,0,0,0.00
2014-1-16,68.9,50.8,38.1,39.4,28.9,22.7,57,44,33,30.13,30.01,3,0,3,0.00
2014-1-17,68.4,51.3,38.8,38.9,27.0,18.3,50,39,33,30.10,29.98,4,0,4,0.00
2014-1-18,69.4,50.7,36.7,39.7,26.9,19.5,52,40,32,30.07,29.96,4,0,4,0.00
2014-1-19,68.4,51.1,38.1,38.9,27.2,18.7,51,40,33,30.04,29.96,4,0,5,0.00
2014-1-20,67.8,50.3,37.6,38.5,25.2,16.0,45,38,32,30.10,29.98,4,0,4,0.00
2014-1-21,67.3,50.0,35.6,38.0,25.7,16.5,52,39,32,30.13,30.01,6,0,6,0.00
2014-1-22,65.8,49.1,37.4,37.5,24.2,15.9,43,38,32,30.04,29.78,4,0,5,0.00
2014-1-23,67.8,52.0,39.6,38.1,26.9,18.5,50,38,33,29.90,29.78,4,0,4,0.00
2014-1-24,78.1,57.8,46.0,45.8,30.8,22.0,42,36,32,30.13,29.90,4,0,4,0.00
2014-1-25,71.6,55.8,46.0,41.6,28.7,20.9,39,35,33,30.13,29.98,4,0,5,0.00
2014-1-26,63.9,50.7,43.0,35.7,25.5,20.1,42,37,33,30.01,29.90,3,0,4,0.00
2014-1-27,66.0,52.3,38.8,37.6,28.3,20.4,54,40,33,30.04,29.90,4,0,4,0.00
2014-1-28,67.8,57.3,49.1,38.5,32.3,27.9,48,39,34,30.13,30.01,5,0,5,0.00
2014-1-29,60.1,56.6,50.9,57.3,49.7,31.1,95,80,46,30.07,29.84,4,0,5,0.12
2014-1-30,61.7,54.1,47.8,54.2,45.9,34.2,95,77,36,29.84,29.72,5,0,5,0.24
2014-1-31,58.1,47.9,38.7,45.9,34.2,21.5,92,63,34,29.93,29.78,7,0,7,0.04
2014-2-1,59.2,45.2,33.4,30.7,25.3,17.9,67,47,34,30.01,29.90,7,0,7,0.00
2014-2-2,54.0,47.2,37.9,31.6,26.8,19.4,56,45,37,29.93,29.78,5,1,5,0.00
2014-2-3,57.2,47.6,39.0,32.3,29.7,25.2,64,51,36,29.93,29.84,6,1,8,0.00
2014-2-4,55.6,44.8,34.5,31.3,27.3,24.0,70,52,37,30.01,29.90,6,0,6,0.08
2014-2-5,55.6,45.9,34.5,33.1,27.9,24.0,67,50,37,30.04,29.96,5,0,5,0.00
2014-2-6,52.0,47.8,44.2,40.0,37.7,30.6,83,68,56,29.96,29.84,6,1,7,0.24
2014-2-7,50.9,49.9,48.4,48.4,46.5,44.4,91,88,82,29.99,29.90,6,2,8,0.51
2014-2-8,55.6,53.3,50.2,54.2,51.3,47.1,96,93,89,30.04,29.93,8,2,8,2.24
2014-2-9,56.8,56.1,54.9,56.3,55.3,53.7,98,97,96,30.04,29.93,8,2,8,1.89
2014-2-10,62.2,56.3,50.2,58.2,51.6,45.0,98,85,57,30.07,29.96,3,0,4,0.20
2014-2-11,65.3,54.0,44.2,51.2,43.5,41.4,94,70,45,30.10,30.04,5,0,5,0.00
2014-2-12,65.8,55.7,47.1,54.1,44.2,41.5,92,68,42,30.13,30.04,5,0,5,0.00
2014-2-13,69.4,60.8,54.3,49.7,45.3,40.9,72,57,45,30.07,29.96,5,0,5,0.00
2014-2-14,66.2,60.0,55.9,52.4,48.1,44.4,76,65,50,30.04,29.93,5,0,5,0.00
2014-2-15,62.2,56.8,52.9,50.6,46.4,42.9,81,69,50,29.93,29.81,6,0,6,0.04
2014-2-16,65.5,57.4,48.9,53.9,42.2,28.1,92,62,35,30.07,29.90,4,0,5,0.00
2014-2-17,64.9,56.5,46.2,39.4,33.5,28.0,61,43,35,30.01,29.96,6,0,8,0.00
2014-2-18,64.8,52.5,42.1,36.8,34.5,31.8,73,52,35,30.04,29.93,6,0,6,0.00
2014-2-19,63.3,55.4,48.4,46.1,40.6,34.9,73,58,35,30.01,29.93,6,1,7,0.00
2014-2-24,73.0,63.9,52.3,42.3,37.7,32.9,52,39,33,29.93,29.81,4,0,5,0.00
2014-2-25,73.4,59.9,46.0,42.6,37.0,29.8,60,44,33,29.84,29.75,4,0,4,0.00
2014-2-26,64.8,56.3,50.9,53.3,43.3,37.6,90,63,37,29.84,29.57,8,1,8,0.35
2014-2-27,63.9,55.8,49.8,52.6,44.5,35.1,90,69,38,29.81,29.51,5,1,8,0.12
2014-2-28,54.7,52.5,50.5,51.9,47.1,34.4,93,83,48,29.51,29.31,8,0,8,1.85
2014-3-1,69.6,58.2,51.3,48.9,38.9,33.1,91,51,34,29.75,29.45,8,2,8,0.04
2014-3-2,62.8,55.1,50.4,52.1,44.0,35.2,91,68,45,30.04,29.72,6,1,6,0.16
2014-3-3,60.1,54.0,48.7,55.6,48.0,42.7,94,81,53,30.04,29.93,6,0,6,0.16
2014-3-4,65.1,57.3,51.1,57.1,47.5,42.9,92,72,47,30.01,29.93,6,0,6,0.04
2014-3-5,68.9,60.8,52.3,53.9,48.7,45.2,88,67,44,30.01,29.90,5,0,6,1.30
2014-3-6,68.0,59.6,50.7,55.8,45.7,36.0,94,64,34,30.07,29.96,5,1,8,0.12
2014-3-7,69.8,57.1,45.5,44.0,38.7,33.7,88,53,34,30.04,29.96,6,1,6,0.00
2014-3-8,70.9,58.8,45.0,43.6,39.6,35.0,70,51,34,30.10,29.96,5,0,5,0.00
2014-3-9,72.1,63.1,56.5,44.8,42.4,39.1,59,48,33,30.10,29.96,4,0,4,0.00
2014-3-10,67.5,59.1,52.9,55.3,44.5,28.0,89,61,33,30.10,29.95,8,1,13,0.28
2014-3-11,74.1,58.0,46.4,43.2,33.0,26.3,51,39,32,30.04,29.87,8,2,8,0.00
2014-3-12,76.8,65.3,53.6,44.8,35.8,26.6,35,33,32,30.04,29.87,11,3,11,0.00
2014-3-13,75.6,63.0,48.6,44.0,34.1,22.8,36,34,32,29.93,29.84,6,1,8,0.00
2014-3-14,73.6,60.0,45.7,42.7,33.8,24.3,50,38,33,30.10,29.90,6,1,6,0.00
2014-3-15,77.4,62.9,49.1,45.2,37.6,30.5,58,40,32,30.19,30.07,7,0,7,0.00
2014-3-16,80.1,64.9,50.7,47.6,38.3,30.5,51,38,32,30.19,30.07,4,0,5,0.00
2014-3-17,67.1,58.3,48.4,38.7,34.3,27.0,59,41,32,30.07,29.84,11,2,11,0.00
2014-3-18,69.8,57.7,45.1,40.2,31.1,22.5,44,36,33,29.87,29.78,6,1,6,0.00
2014-3-19,75.9,68.4,55.6,44.0,40.0,33.4,49,36,32,29.96,29.90,5,1,6,0.00
2014-3-20,76.3,63.1,52.2,44.1,37.6,32.2,49,39,32,29.96,29.84,6,1,6,0.00
2014-3-21,75.7,60.7,46.6,44.0,37.4,31.8,59,43,32,29.87,29.78,5,0,5,0.00
2014-3-22,73.6,59.8,44.8,42.7,38.5,34.6,70,47,33,29.98,29.87,5,0,6,0.00
2014-3-23,74.3,58.2,45.5,43.4,36.6,32.3,61,46,33,30.01,29.95,6,1,6,0.00
2014-3-24,79.7,63.5,47.3,47.3,38.9,32.4,60,42,32,30.01,29.93,5,0,5,0.00
2014-3-25,66.0,57.0,49.1,53.1,38.5,28.1,88,53,35,29.93,29.75,6,1,6,0.08
2014-3-26,56.1,52.4,48.9,51.1,46.6,40.3,90,81,66,29.84,29.69,8,1,8,0.31
2014-3-27,62.1,54.3,50.2,44.7,41.3,35.5,77,63,38,29.98,29.84,6,1,6,0.04
2014-3-29,55.4,53.3,47.8,51.9,49.9,45.9,93,89,73,29.98,29.87,4,0,5,0.87
2014-3-30,63.0,53.8,45.5,53.2,39.6,30.0,94,63,35,29.98,29.87,8,1,8,0.00
2014-3-31,59.7,49.9,44.2,43.7,37.5,31.3,90,65,36,29.96,29.69,8,1,232,0.20
2014-4-1,56.7,47.1,43.2,44.8,40.5,33.9,91,79,44,29.87,29.75,8,1,8,0.75
2014-4-2,61.3,51.4,43.0,46.5,37.0,31.6,90,62,36,29.96,29.78,8,1,8,0.08
2014-4-3,66.7,55.0,43.5,43.8,35.9,29.9,76,51,34,30.01,29.90,6,1,6,0.00
2014-4-4,62.6,53.2,47.8,43.9,36.5,32.1,71,54,36,29.93,29.87,6,0,6,0.04
2014-4-5,69.6,56.0,42.1,40.0,36.8,33.2,73,51,34,30.04,29.90,8,1,8,0.00
2014-4-6,79.7,62.6,45.9,47.3,40.2,35.7,71,46,32,30.10,29.98,8,1,9,0.00
2014-4-7,83.1,62.9,52.2,49.2,43.1,40.8,66,51,31,30.07,29.98,4,0,6,0.00
2014-4-8,86.9,70.5,56.7,51.6,44.5,35.3,57,40,30,30.04,29.96,5,0,5,0.00
2014-4-9,83.8,68.8,55.2,49.8,44.4,40.0,59,43,31,29.98,29.90,4,0,4,0.00
2014-4-10,84.9,68.5,52.3,50.2,43.7,38.9,67,43,30,29.96,29.81,5,0,5,0.00
2014-4-11,82.9,67.4,54.3,49.5,44.3,37.7,63,45,31,29.87,29.75,4,0,4,0.00
2014-4-12,73.9,60.0,48.9,46.8,43.5,41.4,79,57,35,29.84,29.72,6,1,6,0.00
2014-4-13,81.5,63.2,51.8,48.0,43.0,32.4,71,51,31,29.93,29.81,10,1,10,0.00
2014-4-14,79.9,65.0,48.6,47.4,41.6,34.9,59,44,32,29.98,29.87,6,0,6,0.00
2014-4-15,82.9,60.5,51.8,49.2,42.1,38.1,62,52,31,29.96,29.78,5,0,5,0.00
2014-4-16,81.5,67.3,52.9,48.0,42.4,38.0,60,42,31,29.81,29.72,5,0,6,0.00
2014-4-17,84.2,68.8,55.2,50.2,43.9,38.4,59,42,30,29.78,29.69,6,1,7,0.00
2014-4-18,82.8,66.9,54.0,49.1,43.9,39.8,69,45,31,29.84,29.75,6,1,6,0.00
2014-4-19,76.5,63.3,51.3,44.5,40.6,36.0,62,45,32,30.01,29.84,6,1,7,0.00
2014-4-20,84.2,66.4,50.0,50.2,42.5,33.9,71,45,30,30.01,29.96,6,1,6,0.00
2014-4-21,75.4,65.7,53.6,44.0,39.3,29.9,54,39,32,29.98,29.84,6,1,6,0.00
2014-4-22,70.0,59.1,50.4,42.9,37.5,30.4,64,46,34,29.98,29.84,7,1,7,0.00
2014-4-23,72.5,54.0,44.1,41.8,34.8,30.9,64,49,33,29.99,29.93,8,0,8,0.00
2014-4-24,73.4,61.2,50.5,48.6,40.8,34.5,73,48,33,29.96,29.84,8,1,8,0.00
2014-4-25,57.2,53.9,47.8,52.8,48.9,0.0,88,84,22,29.87,29.66,6,0,6,0.83
2014-4-26,64.6,54.2,45.5,50.9,39.1,29.3,92,61,35,29.96,29.72,6,1,6,0.00
2014-4-27,68.4,57.3,47.5,42.5,37.5,32.6,63,49,34,29.99,29.90,6,0,6,0.00
2014-4-28,76.8,62.2,46.8,44.8,39.3,34.6,70,45,32,30.07,29.98,8,1,11,0.00
2014-4-29,85.8,69.3,50.9,50.8,42.3,35.2,60,39,30,30.07,29.96,5,0,5,0.00
2014-4-30,92.7,74.6,55.2,55.6,44.7,33.4,47,35,29,30.01,29.96,6,0,6,0.00
2014-5-1,93.6,77.1,60.8,56.1,45.2,33.7,38,33,28,30.04,29.96,5,0,5,0.00
2014-5-2,90.1,73.6,56.5,53.9,43.8,34.6,48,35,29,29.98,29.90,6,1,6,0.00
2014-5-3,77.0,65.0,55.8,45.1,40.5,33.5,58,42,32,29.93,29.84,8,2,8,0.00
2014-5-4,76.1,63.0,52.2,44.1,41.0,38.3,61,46,32,29.93,29.87,6,1,6,0.00
2014-5-5,73.2,61.5,52.7,50.4,41.1,34.8,87,49,33,29.93,29.78,8,1,8,0.28
2014-5-6,75.2,62.2,51.3,56.9,44.6,34.7,92,58,32,29.81,29.72,8,1,8,0.00
2014-5-7,76.6,63.1,50.2,44.6,40.4,35.1,66,45,32,29.90,29.75,6,1,6,0.00
2014-5-8,69.6,62.0,54.7,50.9,42.6,36.8,71,50,34,29.98,29.87,8,1,8,0.28
2014-5-9,77.2,64.8,55.2,53.5,44.9,35.1,80,52,32,30.01,29.96,6,1,6,0.28
2014-5-10,73.6,61.9,48.6,42.7,38.2,31.7,65,43,32,30.01,29.87,10,2,11,0.00
2014-5-11,80.6,67.7,55.4,47.9,38.0,27.5,37,34,31,29.96,29.90,10,2,10,0.00
2014-5-12,88.9,72.0,53.4,53.5,41.6,28.0,40,34,30,30.01,29.96,5,0,5,0.00
2014-5-13,94.6,76.6,55.9,56.4,44.8,30.5,44,33,28,30.04,29.98,5,0,6,0.28
2014-5-14,97.3,80.0,62.8,58.8,47.0,34.9,38,32,28,30.04,29.96,6,0,6,0.00
2014-5-15,95.2,70.9,62.8,56.8,42.3,37.8,45,36,28,30.01,29.95,3,0,4,0.00
2014-5-16,93.4,78.4,61.0,55.9,45.9,33.9,38,32,28,29.96,29.87,6,1,6,0.00
2014-5-17,66.0,61.8,59.4,40.0,36.4,33.4,44,39,35,29.87,29.81,4,0,4,0.00
2014-5-18,81.1,67.4,56.8,47.9,41.0,36.7,47,39,31,29.87,29.78,6,1,6,0.00
2014-5-19,76.1,63.5,55.6,44.1,40.3,36.3,55,43,32,29.87,29.81,9,2,9,0.00
2014-5-20,72.5,60.9,52.2,48.9,42.3,38.7,71,52,33,29.90,29.81,5,0,6,0.04
2014-5-21,86.2,67.4,51.6,52.8,46.4,41.0,82,51,30,29.87,29.78,6,1,6,0.00
2014-5-22,89.6,72.0,55.2,53.9,46.4,41.0,65,42,30,29.96,29.81,6,1,7,0.00
2014-5-23,93.7,74.7,57.9,56.1,47.8,43.2,59,40,28,29.93,29.81,5,0,5,0.00
2014-5-24,94.1,77.6,62.1,56.1,48.6,42.0,56,37,28,29.87,29.81,6,0,7,0.00
2014-5-25,97.7,78.8,61.0,59.1,49.1,41.0,54,36,28,29.84,29.78,6,1,6,0.00
2014-5-26,95.9,78.5,61.5,57.4,46.8,37.6,47,33,28,29.93,29.81,8,1,8,0.00
2014-5-27,91.4,74.6,58.1,54.5,43.4,32.6,39,33,29,29.93,29.84,5,1,5,0.00
2014-5-28,81.5,70.4,61.9,47.9,40.4,34.6,36,34,31,29.90,29.84,11,1,12,0.00
2014-5-29,88.2,71.4,51.8,52.8,41.3,28.9,45,34,30,29.87,29.78,5,0,6,0.00
2014-5-30,86.2,70.8,56.5,51.1,40.9,30.7,49,34,30,29.87,29.78,6,1,6,0.00
2014-5-31,89.4,69.3,51.1,53.9,44.3,37.2,70,43,30,29.87,29.81,5,0,5,0.00
2014-6-1,93.9,75.8,55.4,56.1,44.9,31.8,49,34,28,29.84,29.72,5,0,6,0.00
2014-6-2,85.8,71.0,58.5,50.8,42.1,33.5,52,36,30,29.84,29.66,6,1,6,0.00
2014-6-3,89.2,69.5,50.7,53.8,45.2,37.0,74,45,30,29.84,29.75,5,0,5,0.00
2014-6-4,97.5,77.3,56.8,59.0,47.7,38.4,56,37,28,29.81,29.72,8,0,8,0.00
2014-6-5,98.4,80.2,62.8,59.7,47.6,37.6,42,32,28,29.75,29.69,4,1,4,0.00
2014-6-6,97.0,78.3,62.2,58.5,46.0,34.6,39,32,28,29.75,29.66,5,0,6,0.00
2014-6-7,100.0,79.2,58.8,60.1,48.9,40.5,57,36,27,29.75,29.66,5,0,5,0.00
2014-6-8,104.0,85.9,65.7,62.4,52.9,42.9,52,33,26,29.75,29.69,8,1,8,0.00
2014-6-9,106.0,88.8,68.7,64.0,53.5,41.8,44,31,26,29.72,29.63,5,0,5,0.00
2014-6-10,103.5,78.1,64.0,61.8,46.9,39.7,55,34,26,29.69,29.60,8,1,10,0.00
2014-6-11,87.8,71.2,58.5,52.5,47.2,42.3,66,44,30,29.81,29.66,6,2,6,0.00
2014-6-12,87.3,68.5,53.6,52.1,44.4,37.0,72,44,30,29.87,29.78,6,1,6,0.00
2014-6-13,88.2,72.1,55.6,52.8,44.0,37.6,54,38,30,29.90,29.81,7,1,8,0.00
2014-6-14,89.1,74.3,58.8,53.6,43.0,30.9,36,33,30,29.81,29.69,8,1,8,0.00
2014-6-15,85.6,71.5,58.5,50.7,41.4,31.6,41,34,30,29.72,29.66,6,1,6,0.00
2014-6-16,80.6,67.6,56.1,47.6,41.2,33.4,55,39,31,29.81,29.69,8,2,8,0.00
2014-6-17,84.2,69.5,54.5,50.2,41.3,33.1,49,36,30,29.87,29.78,10,1,10,0.00
2014-6-18,93.4,76.4,57.9,56.1,45.1,32.9,44,33,28,29.87,29.81,6,1,7,0.00
2014-6-19,95.7,85.5,68.2,57.3,50.7,38.8,34,30,28,29.93,29.84,6,1,6,0.00
2014-6-20,97.2,79.2,60.1,58.7,46.7,33.4,45,32,28,29.87,29.81,5,0,5,0.00
2014-6-21,95.0,77.0,62.8,56.8,44.6,33.3,35,32,28,29.84,29.75,6,1,6,0.00
2014-6-22,94.3,75.4,57.2,56.2,44.5,34.2,46,34,28,29.84,29.75,6,1,6,0.00
2014-6-23,97.2,76.2,56.7,58.7,47.6,39.2,58,38,28,29.87,29.81,5,0,5,0.00
2014-6-24,96.1,78.7,64.4,57.6,46.4,36.7,37,32,28,29.90,29.81,6,1,6,0.00
2014-6-25,84.9,73.1,62.2,50.2,46.3,41.7,54,39,30,29.87,29.78,8,1,8,0.00
2014-6-26,84.0,71.7,62.6,50.7,47.6,42.8,61,44,31,29.90,29.84,8,2,8,0.00
2014-6-27,90.5,74.0,59.2,53.9,49.5,45.5,67,44,29,29.87,29.81,6,1,6,0.00
2014-6-28,94.5,76.2,59.5,56.4,50.2,40.7,69,43,28,29.87,29.81,6,0,6,0.00
2014-6-29,99.9,88.2,61.9,59.9,53.2,38.9,49,31,27,29.84,23.27,7,1,10,0.00
2014-6-30,106.3,87.4,67.8,64.3,52.9,41.6,44,31,26,29.81,29.69,5,0,5,0.00
2014-7-1,98.4,81.9,68.0,59.7,48.6,39.7,39,31,28,29.78,29.69,6,1,6,0.00
2014-7-2,98.4,78.1,59.9,59.6,48.7,38.6,58,37,28,29.81,29.72,5,1,5,0.00
2014-7-3,97.9,79.4,63.3,59.3,49.2,41.8,50,36,28,29.84,29.75,6,1,6,0.00
2014-7-4,99.7,82.3,63.3,59.8,49.7,39.2,49,33,27,29.90,29.78,6,1,6,0.00
2014-7-5,102.2,81.4,61.5,61.8,47.8,34.3,36,31,27,29.98,29.87,4,0,5,0.00
2014-7-6,104.0,83.0,62.4,62.4,48.8,34.6,36,31,26,29.96,29.87,6,0,6,0.00
2014-7-7,102.4,82.9,65.7,61.6,48.9,37.0,35,31,26,29.87,29.78,5,0,5,0.00
2014-7-8,102.7,84.0,71.4,61.8,50.0,41.0,39,31,26,29.87,29.78,4,0,4,0.00
2014-7-9,97.0,79.0,63.1,58.5,49.2,41.5,54,36,28,29.87,29.78,5,1,5,0.00
2014-7-10,92.5,73.5,61.5,55.6,49.2,43.2,61,44,29,29.87,29.75,6,1,6,0.00
2014-7-11,91.9,74.7,62.1,55.0,48.6,43.3,60,42,29,29.98,29.81,5,1,5,0.00
2014-7-12,98.4,76.4,59.4,59.7,50.0,43.3,66,42,28,29.98,29.90,5,1,5,0.00
2014-7-13,104.0,81.8,60.4,62.4,52.4,45.5,62,39,26,29.90,29.78,6,0,6,0.00
2014-7-14,108.3,87.9,70.2,65.2,54.3,45.8,52,33,25,29.87,29.78,5,0,5,0.00
2014-7-15,97.9,81.6,68.9,59.3,50.0,43.0,45,34,28,29.93,29.81,5,1,6,0.00
2014-7-16,89.6,75.6,65.8,53.8,50.0,46.8,56,42,29,29.93,29.84,6,1,8,0.00
2014-7-17,87.6,72.7,62.8,53.6,50.2,46.0,66,47,30,29.96,29.87,8,1,8,0.00
2014-7-18,90.5,73.9,60.4,53.9,49.3,43.5,69,44,29,29.96,29.87,6,1,6,0.00
2014-7-19,97.3,77.6,60.8,58.7,49.9,43.8,64,40,28,29.93,29.84,8,1,8,0.00
2014-7-20,86.2,72.4,66.6,55.9,48.5,44.6,66,44,30,29.93,29.87,6,1,6,0.00
2014-7-21,87.8,74.2,61.7,55.0,51.4,46.0,66,47,30,30.01,29.93,6,1,7,0.00
2014-7-22,90.1,73.6,63.1,53.9,50.2,45.7,61,46,29,30.07,29.96,9,1,9,0.00
2014-7-23,90.1,74.5,60.4,55.0,50.4,46.3,71,45,29,30.10,29.98,6,1,8,0.00
2014-7-24,96.4,79.4,62.2,58.0,50.7,43.3,60,39,28,30.01,29.81,8,1,8,0.00
2014-7-25,102.6,84.9,64.9,61.8,51.0,37.3,46,32,26,29.90,29.81,5,0,6,0.00
2014-7-26,104.2,86.9,67.5,62.5,51.4,38.1,34,30,26,29.93,29.87,6,0,6,0.00
2014-7-27,102.2,86.0,73.0,61.8,51.1,42.3,33,30,26,29.98,29.90,6,1,6,0.00
2014-7-28,99.1,82.5,67.6,59.7,48.9,38.3,39,31,27,30.04,29.96,6,1,6,0.00
2014-7-29,100.8,85.3,71.4,60.7,50.5,41.0,34,30,27,30.04,29.96,6,1,6,0.00
2014-7-30,102.0,85.2,70.0,61.6,50.9,41.0,39,31,27,29.98,29.90,6,0,6,0.00
2014-7-31,98.6,79.4,68.4,59.4,47.8,41.5,44,33,28,29.96,29.93,5,1,5,0.00
2014-8-8,84.7,78.5,72.7,50.2,46.5,43.3,36,32,30,29.81,29.81,3,0,3,0.00
2014-8-9,94.3,77.2,63.1,56.2,47.1,40.3,52,35,28,29.87,29.78,5,1,6,0.00
2014-8-10,90.9,72.3,57.2,54.2,48.0,41.3,70,45,29,29.93,29.78,5,0,5,0.00
2014-8-11,100.0,78.9,61.9,60.1,49.5,41.9,55,37,27,29.90,29.81,5,0,5,0.00
2014-8-12,89.8,73.5,61.5,53.5,47.4,39.4,61,41,29,29.90,29.84,6,1,6,0.00
2014-8-13,91.2,73.6,57.9,54.5,49.0,45.2,69,44,29,29.90,29.78,6,1,6,0.00
2014-8-14,93.9,77.7,63.1,56.1,49.7,41.6,58,39,28,29.90,29.84,4,1,4,0.00
2014-8-15,98.8,80.2,63.7,59.7,49.3,41.2,47,35,27,29.93,29.84,5,0,5,0.00
2014-8-16,99.5,80.0,63.1,59.7,47.6,37.6,43,33,27,29.96,29.87,4,0,5,0.00
2014-8-17,99.5,78.2,60.3,59.7,46.6,35.1,47,33,27,29.93,29.81,4,0,4,0.00
2014-8-18,94.6,69.9,59.0,56.5,46.2,37.6,62,45,28,29.81,29.69,5,0,5,0.00
2014-8-19,87.3,70.8,59.0,52.1,49.7,46.0,71,50,30,29.78,29.69,5,1,5,0.00
2014-8-20,83.3,70.1,60.6,53.1,49.7,45.5,73,51,31,29.87,29.72,6,1,6,0.00
2014-8-21,91.8,74.6,59.0,55.0,50.3,44.9,71,46,29,29.90,29.84,5,0,5,0.00
2014-8-22,90.5,75.5,64.2,53.9,49.3,43.7,57,41,29,29.84,29.78,6,1,6,0.00
2014-8-23,94.3,66.7,57.7,56.2,47.8,40.7,67,53,28,29.84,29.75,5,0,6,0.00
2014-8-24,92.7,74.5,61.3,55.8,48.0,41.6,57,41,29,29.81,29.72,5,1,5,0.00
2014-8-25,88.7,70.8,59.0,53.3,48.1,44.1,70,47,30,29.84,29.69,5,1,5,0.00
2014-8-26,92.1,73.8,58.1,55.3,48.6,43.7,67,43,29,29.93,29.84,4,0,4,0.00
2014-8-27,98.1,79.3,63.5,59.1,48.6,40.1,46,35,28,29.98,29.18,6,0,6,0.00
2014-8-28,98.8,73.6,64.2,59.6,45.0,39.0,45,37,27,29.96,29.87,4,0,5,0.00
2014-8-29,90.9,76.0,62.2,54.2,47.4,39.1,59,37,29,29.87,29.78,4,0,4,0.00
2014-8-30,97.0,80.7,66.4,58.5,48.9,41.0,44,33,28,29.84,29.75,5,0,5,0.00
2014-8-31,95.4,77.4,66.4,57.1,45.8,38.8,45,33,28,29.84,29.75,5,0,6,0.00
2014-9-1,98.1,80.2,63.1,59.4,49.2,41.5,47,35,28,29.78,29.66,4,0,5,0.00
2014-9-2,74.1,68.4,64.8,44.5,42.1,39.2,45,39,33,29.72,29.69,0,0,0,0.00
2014-9-3,93.9,81.3,62.4,55.9,51.3,45.1,69,37,28,29.69,29.60,4,0,5,0.00
2014-9-4,96.3,77.2,60.8,57.9,50.0,41.3,64,41,28,29.69,29.54,4,0,5,0.00
2014-9-5,92.8,74.7,59.2,55.9,49.1,42.0,67,43,29,29.84,29.66,5,0,5,0.00
2014-9-6,94.3,75.7,61.5,56.2,47.9,38.6,55,39,28,29.84,29.75,4,0,4,0.00
2014-9-7,92.7,73.9,58.1,55.8,45.0,34.9,54,37,29,29.78,29.69,4,0,4,0.00
2014-9-8,85.8,69.2,58.5,50.8,44.5,37.0,61,42,30,29.84,29.66,5,1,5,0.00
2014-9-9,88.2,69.7,53.6,52.8,45.7,39.2,68,45,30,29.90,29.81,4,0,4,0.00
2014-9-10,94.3,75.6,57.4,56.2,44.8,33.5,46,34,28,29.87,29.78,4,0,4,0.00
2014-9-11,97.9,79.2,61.3,59.3,46.5,34.2,38,32,28,29.84,29.75,5,0,5,0.00
2014-9-12,100.6,80.8,62.6,60.5,47.4,34.8,38,31,27,29.81,29.72,4,0,4,0.00
2014-9-13,100.8,82.8,65.3,60.7,49.2,37.5,42,31,27,29.78,29.69,4,0,5,0.00
2014-9-14,98.4,85.4,64.0,59.6,51.3,40.9,46,31,28,29.78,29.69,4,0,5,0.00
2014-9-15,93.0,78.0,65.5,56.1,46.3,37.3,39,33,29,29.84,29.72,4,1,5,0.00
2014-9-16,90.7,74.5,59.0,54.1,45.8,39.3,52,37,29,29.84,29.72,4,0,4,0.00
2014-9-17,91.9,74.9,61.3,55.2,46.0,38.9,47,36,29,29.75,29.66,4,0,5,0.00
2014-9-18,81.7,73.6,67.1,56.1,52.2,46.3,65,48,34,29.84,29.72,6,0,6,0.00
2014-9-19,84.6,72.3,61.0,53.6,50.1,47.4,68,48,30,29.81,29.75,5,0,5,0.00
2014-9-20,87.1,74.9,62.8,53.4,49.4,44.4,64,42,30,29.87,29.78,4,0,4,0.00
2014-9-21,79.5,68.8,61.9,55.5,51.1,47.8,72,55,34,29.90,29.75,5,0,5,0.04
2014-9-22,86.4,71.1,59.2,55.8,50.2,44.1,77,51,30,29.93,29.84,4,0,4,0.00
2014-9-23,88.7,73.7,60.8,53.3,47.6,41.5,57,41,30,29.90,29.78,5,0,5,0.00
2014-9-24,86.2,70.3,64.9,56.2,54.0,48.1,72,59,30,29.90,29.78,5,1,8,0.00
2014-9-25,70.3,64.1,57.6,61.0,50.6,41.7,87,63,39,29.96,29.78,4,0,4,0.47
2014-9-26,75.6,64.3,53.4,49.1,45.3,41.3,74,53,33,29.93,29.78,4,0,4,0.00
2014-9-27,76.6,66.9,58.1,50.9,45.7,41.3,70,48,32,29.84,29.72,5,0,5,0.00
2014-9-28,72.1,63.9,57.0,52.9,47.5,44.8,75,56,41,29.87,29.69,5,0,5,0.00
2014-9-29,79.5,66.4,53.4,51.1,47.4,44.0,78,53,32,29.93,29.84,4,0,4,0.00
2014-9-30,62.8,59.4,57.4,49.7,48.2,47.6,72,66,58,29.90,29.87,0,0,0,0.00
2014-10-3,91.6,79.4,66.0,54.9,46.6,37.2,35,32,29,30.01,29.96,4,0,6,0.00
2014-10-4,93.6,74.6,58.3,56.1,43.5,0.0,46,34,25,30.01,29.84,6,0,6,0.00
2014-10-5,92.8,75.0,59.7,55.9,44.1,34.9,44,34,29,29.90,29.81,4,0,4,0.00
2014-10-6,93.7,76.1,60.6,56.1,44.5,34.0,45,33,28,29.84,29.78,4,0,4,0.00
2014-10-7,92.3,75.0,59.2,55.5,45.3,36.0,48,35,29,29.84,29.75,5,0,5,0.00
2014-10-8,92.5,74.3,57.9,55.6,45.2,37.0,51,36,29,29.81,29.75,5,0,6,0.00
2014-10-9,86.2,71.5,56.3,51.1,42.1,33.1,47,35,30,29.87,29.75,4,0,4,0.00
2014-10-10,83.5,70.1,54.5,49.7,44.4,39.2,62,41,31,29.96,29.87,5,0,6,0.00
2014-10-11,84.4,68.9,55.9,50.2,45.0,40.9,59,44,30,29.96,29.87,4,0,4,0.00
2014-10-12,86.9,70.9,59.7,51.8,43.0,32.9,56,37,30,29.93,29.81,10,1,11,0.00
2014-10-13,90.0,73.0,56.7,53.9,42.1,30.5,37,33,29,29.90,29.84,6,0,6,0.00
2014-10-14,73.2,64.9,55.4,48.8,44.1,33.4,63,47,35,29.87,29.75,8,1,8,0.00
2014-10-15,70.9,64.6,59.7,61.5,49.1,42.8,89,59,39,29.98,29.81,4,0,4,0.04
2014-10-16,75.6,64.2,54.1,52.0,44.9,38.7,77,52,32,29.96,29.87,5,0,6,0.00
2014-10-17,73.8,62.7,53.2,44.8,41.1,38.4,64,47,33,29.93,29.84,7,0,7,0.00
2014-10-18,76.8,65.2,56.8,44.7,42.4,40.0,57,45,32,29.93,29.81,8,1,8,0.00
2014-10-19,79.5,66.3,54.1,48.3,44.4,39.7,61,47,32,29.84,29.78,5,0,5,0.00
2014-10-20,72.3,63.6,56.7,54.3,47.0,39.9,79,56,39,29.98,29.84,6,1,6,0.00
2014-10-21,69.6,57.6,49.5,48.0,42.2,32.6,79,58,34,29.99,29.90,8,1,9,0.00
2014-10-22,73.9,61.1,49.1,43.3,38.8,34.9,64,45,33,29.98,29.90,4,0,4,0.00
2014-10-23,73.9,64.6,57.2,52.4,41.5,34.4,83,44,33,29.99,29.90,5,0,6,0.00
2014-10-24,77.4,62.4,49.3,52.2,45.4,41.0,86,58,32,29.93,29.78,6,0,7,0.00
2014-10-25,67.8,61.3,57.2,57.3,48.2,42.0,89,64,45,30.04,29.84,9,1,10,0.08
2014-10-26,68.4,58.7,50.0,51.5,41.6,30.5,87,56,34,30.07,29.93,10,1,10,0.00
2014-10-27,68.9,55.4,42.8,43.0,36.8,32.6,73,52,34,29.93,29.87,4,0,4,0.00
2014-10-28,74.3,59.0,46.8,43.4,38.8,34.5,69,49,33,30.01,29.93,5,0,6,0.04
2014-10-29,76.8,62.6,50.7,45.5,41.0,35.9,63,47,32,30.01,29.93,4,0,5,0.00
2014-10-30,79.9,65.4,54.7,47.4,42.8,38.6,60,45,32,29.93,29.78,5,0,5,0.00
2014-10-31,67.1,60.2,54.7,54.3,48.6,43.6,91,67,46,29.84,29.63,4,0,6,0.31
2014-11-1,63.7,55.6,49.5,52.5,44.9,35.5,94,71,38,29.93,29.63,6,0,6,0.35
2014-11-2,57.7,48.2,42.4,44.7,38.8,34.1,84,71,44,30.01,29.93,6,0,6,0.00
2014-11-3,65.8,57.5,48.0,37.5,36.0,32.1,62,46,35,30.16,30.07,5,0,6,0.00
2014-11-4,68.0,56.6,47.5,40.1,36.9,33.0,62,49,34,30.22,30.10,6,0,6,0.00
2014-11-5,73.4,59.0,47.8,43.4,40.0,37.0,69,51,33,30.16,30.01,4,0,5,0.00
2014-11-6,79.3,61.7,50.5,47.0,42.0,38.5,68,50,32,30.13,30.04,4,0,5,0.00
2014-11-7,74.1,60.0,47.8,43.2,40.5,37.3,69,51,33,30.10,29.98,6,0,6,0.00
2014-11-8,76.1,61.6,51.4,45.4,43.0,40.6,68,53,32,30.04,29.93,5,0,5,0.00
2014-11-9,76.5,61.9,51.3,46.0,43.5,40.6,74,53,32,29.96,29.75,4,0,5,0.00
2014-11-10,74.1,59.7,49.3,45.4,41.7,39.2,69,53,33,29.75,29.69,4,0,4,0.00
2014-11-11,63.7,57.8,51.4,52.1,43.3,39.5,84,60,47,29.87,29.75,5,0,6,0.00
2014-11-12,65.1,57.7,50.7,45.3,40.1,37.3,68,53,37,29.93,29.87,4,0,4,0.00
2014-11-13,59.5,57.5,54.7,57.2,53.4,42.7,92,87,58,29.96,29.84,4,0,5,0.20
2014-11-14,63.3,57.3,50.5,58.3,49.7,42.6,94,77,50,30.01,29.96,4,0,4,0.00
2014-11-15,66.9,55.5,48.0,51.9,43.7,39.9,88,66,42,30.07,29.98,4,0,6,0.00
2014-11-16,60.1,50.7,39.6,42.8,34.3,21.0,79,54,38,30.19,30.01,6,0,6,0.00
2014-11-17,65.7,48.0,38.8,45.9,38.0,30.5,90,71,35,30.16,29.98,4,0,4,0.00
2014-11-18,63.3,51.3,41.0,37.7,33.5,29.2,68,52,35,30.10,29.96,5,0,5,0.00
2014-11-19,61.9,53.9,47.3,50.3,41.2,33.7,87,63,38,30.04,29.90,6,0,6,0.04
2014-11-20,55.4,53.0,49.3,53.7,51.0,47.6,94,93,87,30.01,29.87,5,0,5,0.12
2014-11-21,59.2,52.3,44.6,51.6,45.5,43.0,96,79,58,30.04,29.93,4,0,5,0.00
2014-11-22,57.9,54.1,47.8,55.6,50.2,43.8,93,87,65,30.13,29.93,6,1,7,0.43
2014-11-23,58.1,48.3,41.0,46.4,39.3,34.1,97,74,41,30.22,30.10,4,0,5,0.00
2014-11-24,61.7,49.0,38.8,38.9,35.2,30.9,83,62,36,30.31,30.16,5,0,5,0.00
2014-11-25,63.9,49.1,43.5,37.9,36.1,32.7,73,62,35,30.40,30.22,6,0,6,0.00
2014-11-26,67.6,53.4,42.4,44.0,38.4,35.8,79,60,34,30.22,30.10,3,0,3,0.00
2014-11-28,58.6,53.5,51.4,47.2,41.3,37.6,80,64,47,29.78,29.75,5,0,6,0.24
2014-11-29,61.3,56.3,52.5,49.3,43.1,39.4,87,62,46,29.78,29.66,9,1,9,0.04
2014-11-30,58.8,54.8,52.2,52.8,47.4,42.1,92,77,56,29.96,29.63,6,0,8,0.24
2014-12-1,69.6,57.1,50.9,57.8,48.0,42.0,91,74,39,30.04,29.87,6,0,6,0.00
2014-12-2,58.3,54.1,49.8,56.3,51.6,45.8,93,91,85,29.87,29.60,6,0,7,0.47
2014-12-3,63.7,59.6,57.4,58.1,54.4,49.3,95,84,61,29.81,29.63,9,2,10,2.64
2014-12-4,67.1,59.5,54.9,60.6,51.7,43.7,96,77,45,29.93,29.78,6,0,6,0.00
2014-12-5,66.4,59.7,54.5,57.7,50.6,46.4,87,73,52,29.98,29.87,6,0,7,0.20
2014-12-6,69.8,60.2,53.4,58.8,50.5,46.5,89,72,45,30.13,29.98,5,0,6,0.12
2014-12-7,64.4,54.9,48.9,54.9,46.0,43.6,90,74,47,30.13,30.01,4,0,4,0.00
2014-12-8,64.4,54.7,48.4,49.9,43.4,36.0,87,68,37,30.07,30.01,2,0,2,0.00
2014-12-9,61.5,53.3,48.0,46.0,42.1,39.8,80,67,48,30.10,29.96,4,0,6,0.94
2014-12-10,61.3,54.7,48.6,50.9,45.9,35.1,92,74,38,29.96,29.60,7,0,7,0.00
2014-12-11,63.5,56.2,49.5,55.0,46.2,35.5,94,72,39,29.63,29.42,10,2,15,2.28
2014-12-12,56.1,50.0,46.8,52.2,45.1,37.6,97,85,52,29.96,29.54,5,0,6,0.75
2014-12-13,55.0,48.8,41.7,49.2,42.7,36.0,95,81,55,30.13,29.96,4,0,5,0.00
2014-12-14,54.5,47.4,40.8,45.0,39.3,36.1,91,74,50,30.07,29.93,4,0,5,0.00
2014-12-15,52.9,49.6,47.8,45.0,41.8,38.5,82,74,61,29.93,29.81,6,1,8,0.71
2014-12-16,63.0,54.1,48.6,46.2,41.0,36.7,88,63,40,29.90,29.75,7,1,8,0.39
2014-12-17,54.9,51.1,48.6,48.2,43.8,38.5,91,77,59,30.01,29.84,6,0,7,0.08
2014-12-18,59.5,52.9,47.8,44.2,39.5,36.4,73,61,44,30.10,29.98,6,0,6,0.00
2014-12-19,55.4,52.7,50.2,49.0,42.0,35.5,89,69,47,30.10,29.96,6,1,8,0.83
2014-12-20,57.6,55.0,51.4,52.6,48.8,46.3,91,80,69,30.16,30.04,4,0,4,0.08
2014-12-21,62.6,57.8,53.4,51.3,48.3,45.0,89,71,61,30.19,30.13,4,0,5,0.00
2014-12-22,57.7,52.4,48.4,53.8,47.5,43.7,95,84,70,30.19,30.07,7,0,8,0.00
2014-12-23,64.8,55.3,49.1,54.1,47.3,43.0,91,76,47,30.13,30.01,4,0,4,0.00
2014-12-24,54.7,50.6,46.4,52.7,44.1,29.3,93,80,49,30.01,29.78,8,1,10,0.12
2014-12-25,55.9,47.0,37.4,29.9,25.5,21.2,59,44,34,30.01,29.90,10,2,11,0.00
2014-12-26,56.8,47.6,38.8,28.6,23.5,18.4,58,39,34,30.16,29.93,8,2,10,0.00
2014-12-27,54.3,41.0,35.8,31.5,26.4,24.2,63,57,37,30.31,30.13,4,0,5,0.00
2014-12-28,57.4,43.8,35.4,33.4,28.9,26.8,72,57,36,30.25,30.13,4,0,4,0.00
2014-12-29,47.8,41.5,35.6,33.7,29.9,26.4,74,64,51,30.16,30.01,3,0,4,0.00
2014-12-30,55.4,43.6,34.0,36.1,26.6,17.2,96,56,34,30.19,29.93,11,2,14,0.00
2014-12-31,55.0,38.9,31.3,27.9,15.7,9.8,47,38,35,30.16,29.96,8,1,10,0.00
2015-1-1,50.5,35.8,30.4,25.7,20.7,16.2,62,54,36,30.13,29.95,4,0,5,0.00
2015-1-2,50.9,39.2,30.2,26.2,23.1,19.1,64,53,38,30.16,30.01,8,0,8,0.00